sensor_id;sensor_type;location;lat;lon;timestamp;temperature;humidity
3488;DHT22;38546;48.170;11.724;2022-08-30T00:00:20;16.30;99.90
3488;DHT22;38546;48.170;11.724;2022-08-30T00:03:30;16.30;99.90
3488;DHT22;38546;48.170;11.724;2022-08-30T00:06:29;16.30;99.90
3488;DHT22;38546;48.170;11.724;2022-08-30T00:09:18;16.30;99.90
3488;DHT22;38546;48.170;11.724;2022-08-30T00:12:08;16.30;99.90
3488;DHT22;38546;48.170;11.724;2022-08-30T00:14:57;16.30;99.90
3488;DHT22;38546;48.170;11.724;2022-08-30T00:17:47;16.30;99.90
3488;DHT22;38546;48.170;11.724;2022-08-30T00:20:37;16.30;99.90
3488;DHT22;38546;48.170;11.724;2022-08-30T00:23:26;16.30;99.90
3488;DHT22;38546;48.170;11.724;2022-08-30T00:26:15;16.30;99.90
3488;DHT22;38546;48.170;11.724;2022-08-30T00:29:05;16.30;99.90
3488;DHT22;38546;48.170;11.724;2022-08-30T00:31:54;16.20;99.90
3488;DHT22;38546;48.170;11.724;2022-08-30T00:34:42;16.20;99.90
3488;DHT22;38546;48.170;11.724;2022-08-30T00:37:32;16.20;99.90
3488;DHT22;38546;48.170;11.724;2022-08-30T00:40:22;16.10;99.90
3488;DHT22;38546;48.170;11.724;2022-08-30T00:43:26;16.10;99.90
3488;DHT22;38546;48.170;11.724;2022-08-30T00:46:17;16.10;99.90
3488;DHT22;38546;48.170;11.724;2022-08-30T00:49:07;16.00;99.90
3488;DHT22;38546;48.170;11.724;2022-08-30T00:51:59;16.00;99.90
3488;DHT22;38546;48.170;11.724;2022-08-30T00:54:51;15.90;99.90
3488;DHT22;38546;48.170;11.724;2022-08-30T00:57:42;15.90;99.90
3488;DHT22;38546;48.170;11.724;2022-08-30T01:00:33;15.90;99.90
3488;DHT22;38546;48.170;11.724;2022-08-30T01:03:23;15.90;99.90
3488;DHT22;38546;48.170;11.724;2022-08-30T01:06:12;15.80;99.90
3488;DHT22;38546;48.170;11.724;2022-08-30T01:09:06;15.80;99.90
3488;DHT22;38546;48.170;11.724;2022-08-30T01:11:56;15.80;99.90
3488;DHT22;38546;48.170;11.724;2022-08-30T01:14:46;15.80;99.90
3488;DHT22;38546;48.170;11.724;2022-08-30T01:17:37;15.80;99.90
3488;DHT22;38546;48.170;11.724;2022-08-30T01:20:31;15.80;99.90
3488;DHT22;38546;48.170;11.724;2022-08-30T01:23:24;15.80;99.90
3488;DHT22;38546;48.170;11.724;2022-08-30T01:26:15;15.70;99.90
3488;DHT22;38546;48.170;11.724;2022-08-30T01:29:12;15.70;99.90
3488;DHT22;38546;48.170;11.724;2022-08-30T01:32:05;15.70;99.90
3488;DHT22;38546;48.170;11.724;2022-08-30T01:34:55;15.60;99.90
3488;DHT22;38546;48.170;11.724;2022-08-30T01:37:46;15.60;99.90
3488;DHT22;38546;48.170;11.724;2022-08-30T01:40:36;15.60;99.90
3488;DHT22;38546;48.170;11.724;2022-08-30T01:43:25;15.60;99.90
3488;DHT22;38546;48.170;11.724;2022-08-30T01:46:17;15.60;99.90
3488;DHT22;38546;48.170;11.724;2022-08-30T01:49:13;15.60;99.90
3488;DHT22;38546;48.170;11.724;2022-08-30T01:52:05;15.60;99.90
3488;DHT22;38546;48.170;11.724;2022-08-30T01:54:55;15.60;99.90
3488;DHT22;38546;48.170;11.724;2022-08-30T01:57:44;15.60;99.90
3488;DHT22;38546;48.170;11.724;2022-08-30T02:00:34;15.60;99.90
3488;DHT22;38546;48.170;11.724;2022-08-30T02:03:23;15.50;99.90
3488;DHT22;38546;48.170;11.724;2022-08-30T02:06:16;15.50;99.90
3488;DHT22;38546;48.170;11.724;2022-08-30T02:09:06;15.50;99.90
3488;DHT22;38546;48.170;11.724;2022-08-30T02:11:55;15.40;99.90
3488;DHT22;38546;48.170;11.724;2022-08-30T02:14:45;15.40;99.90
3488;DHT22;38546;48.170;11.724;2022-08-30T02:17:34;15.40;99.90
3488;DHT22;38546;48.170;11.724;2022-08-30T02:20:23;15.40;99.90
3488;DHT22;38546;48.170;11.724;2022-08-30T02:23:12;15.40;99.90
3488;DHT22;38546;48.170;11.724;2022-08-30T02:26:02;15.40;99.90
3488;DHT22;38546;48.170;11.724;2022-08-30T02:28:52;15.40;99.90
3488;DHT22;38546;48.170;11.724;2022-08-30T02:31:41;15.40;99.90
3488;DHT22;38546;48.170;11.724;2022-08-30T02:34:31;15.30;99.90
3488;DHT22;38546;48.170;11.724;2022-08-30T02:37:21;15.30;99.90
3488;DHT22;38546;48.170;11.724;2022-08-30T02:40:10;15.30;99.90
3488;DHT22;38546;48.170;11.724;2022-08-30T02:42:59;15.30;99.90
3488;DHT22;38546;48.170;11.724;2022-08-30T02:45:48;15.30;99.90
3488;DHT22;38546;48.170;11.724;2022-08-30T02:48:38;15.30;99.90
3488;DHT22;38546;48.170;11.724;2022-08-30T02:51:27;15.20;99.90
3488;DHT22;38546;48.170;11.724;2022-08-30T02:54:16;15.20;99.90
3488;DHT22;38546;48.170;11.724;2022-08-30T02:57:08;15.10;99.90
3488;DHT22;38546;48.170;11.724;2022-08-30T02:59:58;15.10;99.90
3488;DHT22;38546;48.170;11.724;2022-08-30T03:02:47;15.10;99.90
3488;DHT22;38546;48.170;11.724;2022-08-30T03:05:37;15.00;99.90
3488;DHT22;38546;48.170;11.724;2022-08-30T03:08:27;15.00;99.90
3488;DHT22;38546;48.170;11.724;2022-08-30T03:11:16;15.00;99.90
3488;DHT22;38546;48.170;11.724;2022-08-30T03:14:06;15.00;99.90
3488;DHT22;38546;48.170;11.724;2022-08-30T03:16:55;15.00;99.90
3488;DHT22;38546;48.170;11.724;2022-08-30T03:19:44;14.90;99.90
3488;DHT22;38546;48.170;11.724;2022-08-30T03:22:34;15.00;99.90
3488;DHT22;38546;48.170;11.724;2022-08-30T03:25:24;14.90;99.90
3488;DHT22;38546;48.170;11.724;2022-08-30T03:28:13;14.90;99.90
3488;DHT22;38546;48.170;11.724;2022-08-30T03:31:02;14.90;99.90
3488;DHT22;38546;48.170;11.724;2022-08-30T03:33:52;14.90;99.90
3488;DHT22;38546;48.170;11.724;2022-08-30T03:36:41;14.90;99.90
3488;DHT22;38546;48.170;11.724;2022-08-30T03:39:30;14.90;99.90
3488;DHT22;38546;48.170;11.724;2022-08-30T03:42:19;14.90;99.90
3488;DHT22;38546;48.170;11.724;2022-08-30T03:45:09;14.90;99.90
3488;DHT22;38546;48.170;11.724;2022-08-30T03:47:58;14.90;99.90
3488;DHT22;38546;48.170;11.724;2022-08-30T03:50:50;14.80;99.90
3488;DHT22;38546;48.170;11.724;2022-08-30T03:53:40;14.80;99.90
3488;DHT22;38546;48.170;11.724;2022-08-30T03:56:29;14.80;99.90
3488;DHT22;38546;48.170;11.724;2022-08-30T03:59:18;14.80;99.90
3488;DHT22;38546;48.170;11.724;2022-08-30T04:02:07;14.70;99.90
3488;DHT22;38546;48.170;11.724;2022-08-30T04:04:56;14.70;99.90
3488;DHT22;38546;48.170;11.724;2022-08-30T04:07:46;14.60;99.90
3488;DHT22;38546;48.170;11.724;2022-08-30T04:10:35;14.60;99.90
3488;DHT22;38546;48.170;11.724;2022-08-30T04:13:24;14.60;99.90
3488;DHT22;38546;48.170;11.724;2022-08-30T04:16:14;14.60;99.90
3488;DHT22;38546;48.170;11.724;2022-08-30T04:19:04;14.60;99.90
3488;DHT22;38546;48.170;11.724;2022-08-30T04:21:53;14.60;99.90
3488;DHT22;38546;48.170;11.724;2022-08-30T04:24:42;14.60;99.90
3488;DHT22;38546;48.170;11.724;2022-08-30T04:27:31;14.60;99.90
3488;DHT22;38546;48.170;11.724;2022-08-30T04:30:20;14.60;99.90
3488;DHT22;38546;48.170;11.724;2022-08-30T04:33:11;14.60;99.90
3488;DHT22;38546;48.170;11.724;2022-08-30T04:36:03;14.60;99.90
3488;DHT22;38546;48.170;11.724;2022-08-30T04:38:53;14.60;99.90
3488;DHT22;38546;48.170;11.724;2022-08-30T04:41:42;14.60;99.90
3488;DHT22;38546;48.170;11.724;2022-08-30T04:44:31;14.70;99.90
3488;DHT22;38546;48.170;11.724;2022-08-30T04:47:21;14.70;99.90
3488;DHT22;38546;48.170;11.724;2022-08-30T04:50:12;14.70;99.90
3488;DHT22;38546;48.170;11.724;2022-08-30T04:53:04;14.70;99.90
3488;DHT22;38546;48.170;11.724;2022-08-30T04:55:54;14.70;99.90
3488;DHT22;38546;48.170;11.724;2022-08-30T04:58:46;14.70;99.90
3488;DHT22;38546;48.170;11.724;2022-08-30T05:01:37;14.70;99.90
3488;DHT22;38546;48.170;11.724;2022-08-30T05:04:26;14.70;99.90
3488;DHT22;38546;48.170;11.724;2022-08-30T05:07:15;14.80;99.90
3488;DHT22;38546;48.170;11.724;2022-08-30T05:10:05;14.80;99.90
3488;DHT22;38546;48.170;11.724;2022-08-30T05:12:55;14.80;99.90
3488;DHT22;38546;48.170;11.724;2022-08-30T05:15:45;14.90;99.90
3488;DHT22;38546;48.170;11.724;2022-08-30T05:18:35;15.00;99.90
3488;DHT22;38546;48.170;11.724;2022-08-30T05:21:26;15.00;99.90
3488;DHT22;38546;48.170;11.724;2022-08-30T05:24:15;15.10;99.90
3488;DHT22;38546;48.170;11.724;2022-08-30T05:27:05;15.10;99.90
3488;DHT22;38546;48.170;11.724;2022-08-30T05:29:54;15.20;99.90
3488;DHT22;38546;48.170;11.724;2022-08-30T05:32:44;15.20;99.90
3488;DHT22;38546;48.170;11.724;2022-08-30T05:35:33;15.30;99.90
3488;DHT22;38546;48.170;11.724;2022-08-30T05:38:23;15.40;99.90
3488;DHT22;38546;48.170;11.724;2022-08-30T05:41:12;15.40;99.90
3488;DHT22;38546;48.170;11.724;2022-08-30T05:44:04;15.50;99.90
3488;DHT22;38546;48.170;11.724;2022-08-30T05:46:54;15.60;99.90
3488;DHT22;38546;48.170;11.724;2022-08-30T05:49:43;15.60;99.90
3488;DHT22;38546;48.170;11.724;2022-08-30T05:52:40;15.70;99.90
3488;DHT22;38546;48.170;11.724;2022-08-30T05:55:31;15.70;99.90
3488;DHT22;38546;48.170;11.724;2022-08-30T05:58:20;15.80;99.90
3488;DHT22;38546;48.170;11.724;2022-08-30T06:01:24;15.90;99.90
3488;DHT22;38546;48.170;11.724;2022-08-30T06:04:15;16.00;99.90
3488;DHT22;38546;48.170;11.724;2022-08-30T06:07:05;16.10;99.90
3488;DHT22;38546;48.170;11.724;2022-08-30T06:09:54;16.20;99.90
3488;DHT22;38546;48.170;11.724;2022-08-30T06:12:43;16.30;99.90
3488;DHT22;38546;48.170;11.724;2022-08-30T06:15:33;16.40;99.90
3488;DHT22;38546;48.170;11.724;2022-08-30T06:18:22;16.50;99.90
3488;DHT22;38546;48.170;11.724;2022-08-30T06:21:16;16.60;99.90
3488;DHT22;38546;48.170;11.724;2022-08-30T06:24:08;16.80;99.90
3488;DHT22;38546;48.170;11.724;2022-08-30T06:26:58;16.90;99.90
3488;DHT22;38546;48.170;11.724;2022-08-30T06:29:50;17.10;99.90
3488;DHT22;38546;48.170;11.724;2022-08-30T06:32:40;17.40;99.90
3488;DHT22;38546;48.170;11.724;2022-08-30T06:35:29;17.70;99.90
3488;DHT22;38546;48.170;11.724;2022-08-30T06:38:19;17.80;99.90
3488;DHT22;38546;48.170;11.724;2022-08-30T06:41:11;18.00;99.90
3488;DHT22;38546;48.170;11.724;2022-08-30T06:44:03;18.20;99.90
3488;DHT22;38546;48.170;11.724;2022-08-30T06:46:53;18.40;99.90
3488;DHT22;38546;48.170;11.724;2022-08-30T06:49:42;18.60;99.90
3488;DHT22;38546;48.170;11.724;2022-08-30T06:52:31;18.90;99.90
3488;DHT22;38546;48.170;11.724;2022-08-30T06:55:20;19.10;99.90
3488;DHT22;38546;48.170;11.724;2022-08-30T06:58:09;19.30;99.90
3488;DHT22;38546;48.170;11.724;2022-08-30T07:00:59;19.50;99.90
3488;DHT22;38546;48.170;11.724;2022-08-30T07:03:49;19.70;99.90
3488;DHT22;38546;48.170;11.724;2022-08-30T07:06:39;20.00;99.90
3488;DHT22;38546;48.170;11.724;2022-08-30T07:09:28;20.20;99.90
3488;DHT22;38546;48.170;11.724;2022-08-30T07:12:17;20.40;99.90
3488;DHT22;38546;48.170;11.724;2022-08-30T07:15:06;20.60;99.90
3488;DHT22;38546;48.170;11.724;2022-08-30T07:17:56;20.70;99.90
3488;DHT22;38546;48.170;11.724;2022-08-30T07:21:10;20.80;99.90
3488;DHT22;38546;48.170;11.724;2022-08-30T07:24:02;21.10;99.90
3488;DHT22;38546;48.170;11.724;2022-08-30T07:26:52;21.20;99.90
3488;DHT22;38546;48.170;11.724;2022-08-30T07:29:41;21.30;99.90
3488;DHT22;38546;48.170;11.724;2022-08-30T07:32:30;21.50;99.90
3488;DHT22;38546;48.170;11.724;2022-08-30T07:35:19;21.60;99.90
3488;DHT22;38546;48.170;11.724;2022-08-30T07:38:12;21.60;99.90
3488;DHT22;38546;48.170;11.724;2022-08-30T07:41:02;21.80;99.90
3488;DHT22;38546;48.170;11.724;2022-08-30T07:43:52;22.00;99.90
3488;DHT22;38546;48.170;11.724;2022-08-30T07:46:42;22.10;99.90
3488;DHT22;38546;48.170;11.724;2022-08-30T07:49:32;22.10;99.90
3488;DHT22;38546;48.170;11.724;2022-08-30T07:52:20;22.20;99.90
3488;DHT22;38546;48.170;11.724;2022-08-30T07:55:10;22.30;99.90
3488;DHT22;38546;48.170;11.724;2022-08-30T07:57:59;22.20;99.90
3488;DHT22;38546;48.170;11.724;2022-08-30T08:00:49;22.20;99.90
3488;DHT22;38546;48.170;11.724;2022-08-30T08:03:38;22.50;99.90
3488;DHT22;38546;48.170;11.724;2022-08-30T08:06:29;22.50;99.90
3488;DHT22;38546;48.170;11.724;2022-08-30T08:09:18;22.70;99.90
3488;DHT22;38546;48.170;11.724;2022-08-30T08:12:08;22.80;99.90
3488;DHT22;38546;48.170;11.724;2022-08-30T08:14:57;22.80;99.90
3488;DHT22;38546;48.170;11.724;2022-08-30T08:17:47;22.80;99.90
3488;DHT22;38546;48.170;11.724;2022-08-30T08:20:36;22.80;99.90
3488;DHT22;38546;48.170;11.724;2022-08-30T08:23:26;23.00;99.90
3488;DHT22;38546;48.170;11.724;2022-08-30T08:26:17;23.00;99.90
3488;DHT22;38546;48.170;11.724;2022-08-30T08:29:07;23.20;99.90
3488;DHT22;38546;48.170;11.724;2022-08-30T08:31:57;23.30;99.90
3488;DHT22;38546;48.170;11.724;2022-08-30T08:34:48;23.40;99.90
3488;DHT22;38546;48.170;11.724;2022-08-30T08:37:38;23.60;99.90
3488;DHT22;38546;48.170;11.724;2022-08-30T08:40:30;23.40;99.90
3488;DHT22;38546;48.170;11.724;2022-08-30T08:43:32;23.40;99.90
3488;DHT22;38546;48.170;11.724;2022-08-30T08:46:36;23.60;99.90
3488;DHT22;38546;48.170;11.724;2022-08-30T08:49:32;23.50;99.90
3488;DHT22;38546;48.170;11.724;2022-08-30T08:53:20;23.60;99.90
3488;DHT22;38546;48.170;11.724;2022-08-30T08:56:24;23.80;99.90
3488;DHT22;38546;48.170;11.724;2022-08-30T08:59:14;23.70;99.90
3488;DHT22;38546;48.170;11.724;2022-08-30T09:02:29;24.10;99.90
3488;DHT22;38546;48.170;11.724;2022-08-30T09:05:28;24.20;99.90
3488;DHT22;38546;48.170;11.724;2022-08-30T09:08:21;24.20;99.90
3488;DHT22;38546;48.170;11.724;2022-08-30T09:11:24;24.40;99.90
3488;DHT22;38546;48.170;11.724;2022-08-30T09:14:21;24.30;99.90
3488;DHT22;38546;48.170;11.724;2022-08-30T09:17:18;24.40;99.90
3488;DHT22;38546;48.170;11.724;2022-08-30T09:20:08;24.50;99.90
3488;DHT22;38546;48.170;11.724;2022-08-30T09:22:57;24.50;99.90
3488;DHT22;38546;48.170;11.724;2022-08-30T09:26:48;24.70;99.90
3488;DHT22;38546;48.170;11.724;2022-08-30T09:29:53;24.90;99.90
3488;DHT22;38546;48.170;11.724;2022-08-30T09:32:59;24.90;99.90
3488;DHT22;38546;48.170;11.724;2022-08-30T09:35:50;25.00;99.90
3488;DHT22;38546;48.170;11.724;2022-08-30T09:38:40;25.20;99.90
3488;DHT22;38546;48.170;11.724;2022-08-30T09:41:38;25.50;99.90
3488;DHT22;38546;48.170;11.724;2022-08-30T09:44:36;25.50;99.90
3488;DHT22;38546;48.170;11.724;2022-08-30T09:47:30;25.60;99.90
3488;DHT22;38546;48.170;11.724;2022-08-30T09:50:19;25.60;99.90
3488;DHT22;38546;48.170;11.724;2022-08-30T09:53:15;25.70;99.90
3488;DHT22;38546;48.170;11.724;2022-08-30T09:56:23;25.70;99.90
3488;DHT22;38546;48.170;11.724;2022-08-30T10:00:03;25.70;99.90
3488;DHT22;38546;48.170;11.724;2022-08-30T10:03:40;25.90;99.90
3488;DHT22;38546;48.170;11.724;2022-08-30T10:15:20;26.20;99.90
3488;DHT22;38546;48.170;11.724;2022-08-30T10:18:39;26.50;99.90
3488;DHT22;38546;48.170;11.724;2022-08-30T10:22:01;26.50;99.90
3488;DHT22;38546;48.170;11.724;2022-08-30T10:25:12;26.70;99.90
3488;DHT22;38546;48.170;11.724;2022-08-30T10:28:28;26.70;99.90
3488;DHT22;38546;48.170;11.724;2022-08-30T10:35:59;27.20;99.90
3488;DHT22;38546;48.170;11.724;2022-08-30T10:38:53;27.40;99.90
3488;DHT22;38546;48.170;11.724;2022-08-30T10:41:48;27.40;99.90
3488;DHT22;38546;48.170;11.724;2022-08-30T10:44:45;27.00;99.90
3488;DHT22;38546;48.170;11.724;2022-08-30T10:47:48;26.60;99.90
3488;DHT22;38546;48.170;11.724;2022-08-30T10:50:55;26.60;99.90
3488;DHT22;38546;48.170;11.724;2022-08-30T10:53:51;26.20;99.00
3488;DHT22;38546;48.170;11.724;2022-08-30T10:56:47;26.40;99.90
3488;DHT22;38546;48.170;11.724;2022-08-30T10:59:44;26.50;99.90
3488;DHT22;38546;48.170;11.724;2022-08-30T11:03:11;26.60;99.90
3488;DHT22;38546;48.170;11.724;2022-08-30T11:13:55;26.80;97.90
3488;DHT22;38546;48.170;11.724;2022-08-30T11:16:48;27.10;98.40
3488;DHT22;38546;48.170;11.724;2022-08-30T11:19:40;26.50;98.50
3488;DHT22;38546;48.170;11.724;2022-08-30T11:22:35;26.60;98.70
3488;DHT22;38546;48.170;11.724;2022-08-30T11:25:54;26.50;99.60
3488;DHT22;38546;48.170;11.724;2022-08-30T11:29:01;26.40;98.60
3488;DHT22;38546;48.170;11.724;2022-08-30T11:31:53;26.30;99.10
3488;DHT22;38546;48.170;11.724;2022-08-30T11:35:01;26.40;99.40
3488;DHT22;38546;48.170;11.724;2022-08-30T11:37:52;26.50;99.90
3488;DHT22;38546;48.170;11.724;2022-08-30T11:40:45;26.60;99.30
3488;DHT22;38546;48.170;11.724;2022-08-30T11:50:53;27.00;97.70
3488;DHT22;38546;48.170;11.724;2022-08-30T12:11:01;26.10;99.90
3488;DHT22;38546;48.170;11.724;2022-08-30T12:13:56;26.10;99.90
3488;DHT22;38546;48.170;11.724;2022-08-30T12:16:46;26.10;99.70
3488;DHT22;38546;48.170;11.724;2022-08-30T12:19:56;26.00;99.90
3488;DHT22;38546;48.170;11.724;2022-08-30T12:22:45;25.80;99.90
3488;DHT22;38546;48.170;11.724;2022-08-30T12:25:35;25.70;99.70
3488;DHT22;38546;48.170;11.724;2022-08-30T12:28:25;25.80;99.90
3488;DHT22;38546;48.170;11.724;2022-08-30T12:31:19;25.90;99.00
3488;DHT22;38546;48.170;11.724;2022-08-30T12:35:16;25.80;98.70
3488;DHT22;38546;48.170;11.724;2022-08-30T12:38:17;26.20;98.30
3488;DHT22;38546;48.170;11.724;2022-08-30T12:41:07;26.20;98.80
3488;DHT22;38546;48.170;11.724;2022-08-30T12:44:13;26.00;99.10
3488;DHT22;38546;48.170;11.724;2022-08-30T12:47:05;25.90;99.60
3488;DHT22;38546;48.170;11.724;2022-08-30T12:49:55;25.90;98.90
3488;DHT22;38546;48.170;11.724;2022-08-30T12:53:45;25.80;99.40
3488;DHT22;38546;48.170;11.724;2022-08-30T12:56:50;26.10;99.00
3488;DHT22;38546;48.170;11.724;2022-08-30T12:59:46;26.20;97.70
3488;DHT22;38546;48.170;11.724;2022-08-30T13:02:48;26.00;98.80
3488;DHT22;38546;48.170;11.724;2022-08-30T13:05:44;25.80;99.00
3488;DHT22;38546;48.170;11.724;2022-08-30T13:11:22;25.80;98.40
3488;DHT22;38546;48.170;11.724;2022-08-30T13:14:35;26.00;98.40
3488;DHT22;38546;48.170;11.724;2022-08-30T13:17:29;26.00;97.20
3488;DHT22;38546;48.170;11.724;2022-08-30T13:20:24;25.90;98.30
3488;DHT22;38546;48.170;11.724;2022-08-30T13:23:22;26.00;98.90
3488;DHT22;38546;48.170;11.724;2022-08-30T13:26:11;26.10;97.50
3488;DHT22;38546;48.170;11.724;2022-08-30T13:29:04;26.10;97.70
3488;DHT22;38546;48.170;11.724;2022-08-30T13:31:54;25.80;96.70
3488;DHT22;38546;48.170;11.724;2022-08-30T13:34:45;25.90;97.50
3488;DHT22;38546;48.170;11.724;2022-08-30T13:37:34;26.10;97.60
3488;DHT22;38546;48.170;11.724;2022-08-30T13:40:23;26.40;96.80
3488;DHT22;38546;48.170;11.724;2022-08-30T13:43:12;26.30;97.60
3488;DHT22;38546;48.170;11.724;2022-08-30T13:46:03;26.00;97.80
3488;DHT22;38546;48.170;11.724;2022-08-30T13:49:01;25.90;98.20
3488;DHT22;38546;48.170;11.724;2022-08-30T13:51:54;26.20;97.40
3488;DHT22;38546;48.170;11.724;2022-08-30T13:54:43;26.20;97.10
3488;DHT22;38546;48.170;11.724;2022-08-30T13:57:34;26.20;97.30
3488;DHT22;38546;48.170;11.724;2022-08-30T14:00:24;26.20;96.90
3488;DHT22;38546;48.170;11.724;2022-08-30T14:03:15;26.50;95.70
3488;DHT22;38546;48.170;11.724;2022-08-30T14:06:04;26.50;95.70
3488;DHT22;38546;48.170;11.724;2022-08-30T14:08:54;26.30;95.60
3488;DHT22;38546;48.170;11.724;2022-08-30T14:11:43;26.20;95.20
3488;DHT22;38546;48.170;11.724;2022-08-30T14:14:32;26.40;95.30
3488;DHT22;38546;48.170;11.724;2022-08-30T14:17:22;26.50;94.80
3488;DHT22;38546;48.170;11.724;2022-08-30T14:20:18;26.40;94.80
3488;DHT22;38546;48.170;11.724;2022-08-30T14:23:07;26.30;95.40
3488;DHT22;38546;48.170;11.724;2022-08-30T14:25:57;26.20;95.40
3488;DHT22;38546;48.170;11.724;2022-08-30T14:29:03;26.10;95.90
3488;DHT22;38546;48.170;11.724;2022-08-30T14:31:55;26.20;94.10
3488;DHT22;38546;48.170;11.724;2022-08-30T14:34:45;26.10;94.40
3488;DHT22;38546;48.170;11.724;2022-08-30T14:37:34;26.00;95.40
3488;DHT22;38546;48.170;11.724;2022-08-30T14:40:23;26.00;94.40
3488;DHT22;38546;48.170;11.724;2022-08-30T14:43:12;25.90;94.20
3488;DHT22;38546;48.170;11.724;2022-08-30T14:46:01;26.20;93.70
3488;DHT22;38546;48.170;11.724;2022-08-30T14:48:50;26.10;94.60
3488;DHT22;38546;48.170;11.724;2022-08-30T14:51:39;25.90;93.60
3488;DHT22;38546;48.170;11.724;2022-08-30T14:54:30;26.00;93.80
3488;DHT22;38546;48.170;11.724;2022-08-30T14:57:20;26.00;94.80
3488;DHT22;38546;48.170;11.724;2022-08-30T15:00:11;26.10;93.80
3488;DHT22;38546;48.170;11.724;2022-08-30T15:03:02;26.20;93.30
3488;DHT22;38546;48.170;11.724;2022-08-30T15:05:51;26.00;93.60
3488;DHT22;38546;48.170;11.724;2022-08-30T15:08:40;26.00;93.70
3488;DHT22;38546;48.170;11.724;2022-08-30T15:11:30;25.90;93.70
3488;DHT22;38546;48.170;11.724;2022-08-30T15:14:19;25.80;95.00
3488;DHT22;38546;48.170;11.724;2022-08-30T15:17:08;25.90;94.30
3488;DHT22;38546;48.170;11.724;2022-08-30T15:19:57;26.10;94.80
3488;DHT22;38546;48.170;11.724;2022-08-30T15:22:46;25.90;94.50
3488;DHT22;38546;48.170;11.724;2022-08-30T15:25:35;25.80;94.10
3488;DHT22;38546;48.170;11.724;2022-08-30T15:28:25;25.80;94.60
3488;DHT22;38546;48.170;11.724;2022-08-30T15:31:18;25.80;95.40
3488;DHT22;38546;48.170;11.724;2022-08-30T15:34:11;25.70;95.30
3488;DHT22;38546;48.170;11.724;2022-08-30T15:37:02;25.70;95.30
3488;DHT22;38546;48.170;11.724;2022-08-30T15:39:52;25.70;95.10
3488;DHT22;38546;48.170;11.724;2022-08-30T15:42:43;25.60;94.80
3488;DHT22;38546;48.170;11.724;2022-08-30T15:45:32;25.70;93.70
3488;DHT22;38546;48.170;11.724;2022-08-30T15:48:21;25.70;93.90
3488;DHT22;38546;48.170;11.724;2022-08-30T15:51:11;25.60;94.80
3488;DHT22;38546;48.170;11.724;2022-08-30T15:54:00;25.50;95.10
3488;DHT22;38546;48.170;11.724;2022-08-30T15:56:51;25.40;95.20
3488;DHT22;38546;48.170;11.724;2022-08-30T15:59:46;25.30;95.40
3488;DHT22;38546;48.170;11.724;2022-08-30T16:02:36;25.20;95.80
3488;DHT22;38546;48.170;11.724;2022-08-30T16:05:26;25.50;94.60
3488;DHT22;38546;48.170;11.724;2022-08-30T16:08:16;25.70;94.10
3488;DHT22;38546;48.170;11.724;2022-08-30T16:11:07;25.80;94.40
3488;DHT22;38546;48.170;11.724;2022-08-30T16:13:58;25.60;94.80
3488;DHT22;38546;48.170;11.724;2022-08-30T16:16:47;25.70;93.80
3488;DHT22;38546;48.170;11.724;2022-08-30T16:19:36;25.70;94.80
3488;DHT22;38546;48.170;11.724;2022-08-30T16:22:25;25.40;95.40
3488;DHT22;38546;48.170;11.724;2022-08-30T16:25:15;25.30;95.60
3488;DHT22;38546;48.170;11.724;2022-08-30T16:28:04;25.50;94.70
3488;DHT22;38546;48.170;11.724;2022-08-30T16:30:53;25.40;94.00
3488;DHT22;38546;48.170;11.724;2022-08-30T16:33:43;25.50;94.40
3488;DHT22;38546;48.170;11.724;2022-08-30T16:36:32;25.50;94.50
3488;DHT22;38546;48.170;11.724;2022-08-30T16:39:23;25.50;94.40
3488;DHT22;38546;48.170;11.724;2022-08-30T16:42:12;25.50;95.00
3488;DHT22;38546;48.170;11.724;2022-08-30T16:45:04;25.30;95.30
3488;DHT22;38546;48.170;11.724;2022-08-30T16:47:54;25.30;94.70
3488;DHT22;38546;48.170;11.724;2022-08-30T16:50:43;25.20;95.40
3488;DHT22;38546;48.170;11.724;2022-08-30T16:53:33;25.10;95.40
3488;DHT22;38546;48.170;11.724;2022-08-30T16:56:24;25.10;94.80
3488;DHT22;38546;48.170;11.724;2022-08-30T16:59:15;25.00;95.10
3488;DHT22;38546;48.170;11.724;2022-08-30T17:02:05;24.90;95.30
3488;DHT22;38546;48.170;11.724;2022-08-30T17:04:55;24.90;95.40
3488;DHT22;38546;48.170;11.724;2022-08-30T17:07:44;24.80;95.60
3488;DHT22;38546;48.170;11.724;2022-08-30T17:10:33;24.70;95.90
3488;DHT22;38546;48.170;11.724;2022-08-30T17:13:22;24.70;95.90
3488;DHT22;38546;48.170;11.724;2022-08-30T17:16:11;24.60;96.10
3488;DHT22;38546;48.170;11.724;2022-08-30T17:19:01;24.60;96.30
3488;DHT22;38546;48.170;11.724;2022-08-30T17:21:51;24.60;96.30
3488;DHT22;38546;48.170;11.724;2022-08-30T17:24:40;24.50;96.40
3488;DHT22;38546;48.170;11.724;2022-08-30T17:27:29;24.30;96.50
3488;DHT22;38546;48.170;11.724;2022-08-30T17:30:19;24.30;96.80
3488;DHT22;38546;48.170;11.724;2022-08-30T17:33:08;24.10;97.30
3488;DHT22;38546;48.170;11.724;2022-08-30T17:35:59;24.10;97.30
3488;DHT22;38546;48.170;11.724;2022-08-30T17:38:48;24.00;97.40
3488;DHT22;38546;48.170;11.724;2022-08-30T17:41:38;24.10;97.60
3488;DHT22;38546;48.170;11.724;2022-08-30T17:44:30;23.90;98.20
3488;DHT22;38546;48.170;11.724;2022-08-30T17:47:21;23.70;98.60
3488;DHT22;38546;48.170;11.724;2022-08-30T17:50:11;23.50;99.10
3488;DHT22;38546;48.170;11.724;2022-08-30T17:53:01;23.60;99.20
3488;DHT22;38546;48.170;11.724;2022-08-30T17:55:50;23.40;99.70
3488;DHT22;38546;48.170;11.724;2022-08-30T17:58:39;23.20;99.80
3488;DHT22;38546;48.170;11.724;2022-08-30T18:01:28;23.10;99.90
3488;DHT22;38546;48.170;11.724;2022-08-30T18:04:17;23.10;99.90
3488;DHT22;38546;48.170;11.724;2022-08-30T18:07:06;23.00;99.90
3488;DHT22;38546;48.170;11.724;2022-08-30T18:09:55;22.90;99.90
3488;DHT22;38546;48.170;11.724;2022-08-30T18:12:45;22.80;99.90
3488;DHT22;38546;48.170;11.724;2022-08-30T18:15:34;22.70;99.90
3488;DHT22;38546;48.170;11.724;2022-08-30T18:18:23;22.60;99.90
3488;DHT22;38546;48.170;11.724;2022-08-30T18:21:14;22.50;99.90
3488;DHT22;38546;48.170;11.724;2022-08-30T18:24:05;22.40;99.90
3488;DHT22;38546;48.170;11.724;2022-08-30T18:26:54;22.40;99.90
3488;DHT22;38546;48.170;11.724;2022-08-30T18:29:43;22.20;99.90
3488;DHT22;38546;48.170;11.724;2022-08-30T18:32:33;22.10;99.90
3488;DHT22;38546;48.170;11.724;2022-08-30T18:35:23;22.10;99.90
3488;DHT22;38546;48.170;11.724;2022-08-30T18:38:12;22.00;99.90
3488;DHT22;38546;48.170;11.724;2022-08-30T18:41:04;21.90;99.90
3488;DHT22;38546;48.170;11.724;2022-08-30T18:43:55;21.80;99.90
3488;DHT22;38546;48.170;11.724;2022-08-30T18:46:44;21.80;99.90
3488;DHT22;38546;48.170;11.724;2022-08-30T18:49:34;21.70;99.90
3488;DHT22;38546;48.170;11.724;2022-08-30T18:52:24;21.70;99.90
3488;DHT22;38546;48.170;11.724;2022-08-30T18:55:15;21.70;99.90
3488;DHT22;38546;48.170;11.724;2022-08-30T18:58:05;21.70;99.90